Wetterdaten: November 2014
Datum Temp Feuchte Luftdruck Regen Wind Richtung Sonnenschein UV Solar Windben
01.11.2014 12,3 C 59 % 1019,3 hPa 0,2 l/m 5,6 km/h S 5,75 h 1,1 UV-I 191 W/m 10,1 km/h
02.11.2014 11,5 C 59 % 1012,0 hPa 0,0 l/m 7,7 km/h S 3,33 h 0,9 UV-I 137 W/m 14,9 km/h
03.11.2014 12,6 C 60 % 999,8 hPa 0,2 l/m 19,1 km/h S 0,08 h 0,6 UV-I 75 W/m 27,4 km/h
04.11.2014 9,6 C 60 % 994,9 hPa 3,0 l/m 1,5 km/h S-SO 0,00 h 0,7 UV-I 49 W/m 2,4 km/h
05.11.2014 7,9 C 60 % 1003,2 hPa 3,6 l/m 0,0 km/h NW 0,25 h 0,6 UV-I 80 W/m 0,0 km/h
06.11.2014 6,3 C 63 % 1011,0 hPa 0,0 l/m 0,0 km/h S-SW 2,42 h 0,7 UV-I 132 W/m 0,0 km/h
07.11.2014 5,8 C 63 % 1007,1 hPa 0,6 l/m 10,0 km/h S-SO 5,50 h 1,0 UV-I 185 W/m 17,3 km/h
08.11.2014 7,9 C 63 % 1011,4 hPa 0,0 l/m 6,4 km/h S 4,25 h 0,8 UV-I 164 W/m 11,7 km/h
09.11.2014 5,5 C 63 % 1009,2 hPa 0,0 l/m 3,0 km/h S-SO 5,67 h 0,8 UV-I 166 W/m 8,1 km/h
10.11.2014 6,8 C 60 % 1010,9 hPa 0,8 l/m 1,9 km/h S 0,17 h 0,6 UV-I 77 W/m 5,2 km/h
11.11.2014 8,8 C 60 % 1006,9 hPa 0,2 l/m 3,5 km/h S-SO 1,83 h 0,8 UV-I 106 W/m 6,0 km/h
12.11.2014 9,8 C 60 % 1005,3 hPa 0,0 l/m 1,0 km/h S-SO 4,75 h 0,8 UV-I 160 W/m 4,4 km/h
13.11.2014 9,8 C 59 % 1013,0 hPa 0,0 l/m 1,3 km/h SO 1,33 h 0,7 UV-I 94 W/m 4,0 km/h
14.11.2014 9,4 C 61 % 1007,8 hPa 0,0 l/m 11,1 km/h SO 0,00 h 0,5 UV-I 48 W/m 18,1 km/h
15.11.2014 8,8 C 60 % 1002,3 hPa 0,0 l/m 6,1 km/h S-SO 0,08 h 0,6 UV-I 63 W/m 13,7 km/h
16.11.2014 7,7 C 60 % 1000,4 hPa 12,8 l/m 4,3 km/h S-SO 0,00 h 0,0 UV-I 21 W/m 13,3 km/h
17.11.2014 7,7 C 61 % 1007,3 hPa 0,0 l/m 2,5 km/h SO 3,58 h 0,7 UV-I 144 W/m 10,4 km/h
18.11.2014 6,3 C 61 % 1010,6 hPa 1,0 l/m 2,3 km/h N-NO 0,00 h 0,0 UV-I 20 W/m 11,3 km/h
19.11.2014 5,7 C 61 % 1021,9 hPa 0,0 l/m 0,0 km/h N 0,00 h 0,0 UV-I 24 W/m 0,0 km/h
20.11.2014 4,8 C 61 % 1027,2 hPa 0,0 l/m 0,1 km/h O 0,00 h 0,5 UV-I 44 W/m 1,2 km/h
21.11.2014 4,3 C 62 % 1023,2 hPa 0,0 l/m 0,6 km/h O-SO 0,00 h 0,5 UV-I 49 W/m 4,0 km/h
22.11.2014 5,3 C 63 % 1020,0 hPa 0,0 l/m 6,8 km/h S-SO 5,75 h 0,8 UV-I 144 W/m 9,6 km/h
23.11.2014 7,9 C 75 % 1018,0 hPa 0,0 l/m 4,0 km/h S-SO 4,58 h 0,8 UV-I 134 W/m 8,0 km/h
24.11.2014 4,9 C 89 % 1024,5 hPa 3,2 l/m 0,1 km/h S 2,08 h 0,6 UV-I 92 W/m 0,8 km/h
25.11.2014 3,0 C 90 % 1024,9 hPa 0,2 l/m 2,8 km/h SO 5,67 h 0,7 UV-I 155 W/m 7,7 km/h
26.11.2014 2,5 C 87 % 1016,7 hPa 0,0 l/m 7,7 km/h SO 0,17 h 0,7 UV-I 63 W/m 17,7 km/h
27.11.2014 2,8 C 89 % 1010,4 hPa 0,0 l/m 11,6 km/h SO 0,58 h 0,6 UV-I 83 W/m 25,0 km/h
28.11.2014 1,9 C 88 % 1013,7 hPa 0,2 l/m 3,6 km/h S-SO 2,75 h 0,7 UV-I 94 W/m 13,3 km/h
29.11.2014 0,9 C 93 % 1016,5 hPa 0,0 l/m 4,6 km/h SO 0,00 h 0,5 UV-I 38 W/m 14,5 km/h
30.11.2014 1,0 C 96 % 1012,8 hPa 0,0 l/m 1,2 km/h SO 0,00 h 0,0 UV-I 26 W/m 4,0 km/h
Min-Datum 25.11.14 01.11.14 04.11.14 12 Tage 01.11.14 - - - - 01.11.14
Min-Zeit 05:25 09:55 05:15 - 00:00 - - - - 00:00
Minimum -1,1 C 56 % 992,9 hPa - 0,0 km/h - - - - 0,0 km/h
Max-Datum 01.11.14 25.11.14 20.11.14 16.11.14 07.11.14 - 01.11.14 01.11.14 08.11.14 03.11.14
Max-Zeit 13:35 00:35 10:45 11:55 16:10 - 14:50 11:45 11:20 15:55
Maximum 19,3 C 100 % 1027,6 hPa 12,8 l/m 31,4 km/h
S-SO
- 5,67 h 1,5 UV-I 482 W/m 51,5 km/h
S
Durchschnitt 6,7 C 68 % 1012,1 hPa #26,0 l/m 4,3 km/h S-SO #60:35 h 0,7 UV-I 95 W/m 9,5 km/h

Durchschnitt Minimum Temp.4,5 C
Durchschnitt Maximum Temp.9,3 C